Airport ID:KMHV
Update Time (UTC):21/09/2019 05:34
Wind Speed (Knots):10
Wind Direction (Magnetic):290
Temperature (°C):19
Dew Point (°C):4
Humidity (%):37
Altimeter (inHg):29.96
Density Altitude (Feet):4000
Visibility (Miles):10+
Clouds (Hundreds of feet):FEW050 SCT055
Present Weather:
METAR:METAR KMHV 210520Z AUTO 30012KT 10SM FEW055 19/04 A2996 RMK A01

The data displayed is for advisory purposes only and is not to be used for flight planning or operations.

This page is not automatically refreshed. Reload the page to see current data.